createdAt,value
2022-09-18T06:52:55.347Z,12.51
2022-09-18T06:55:33.139Z,12.51
2022-09-18T06:58:09.879Z,12.51
2022-09-18T07:00:47.932Z,12.56
2022-09-18T07:03:31.599Z,12.63
2022-09-18T07:06:11.657Z,12.65
2022-09-18T07:08:57.436Z,12.66
2022-09-18T07:11:52.738Z,12.73
2022-09-18T07:14:33.714Z,12.73
2022-09-18T07:17:22.141Z,12.79
2022-09-18T07:20:02.945Z,12.81
2022-09-18T07:22:55.693Z,12.87
2022-09-18T07:25:43.593Z,12.87
2022-09-18T07:28:21.097Z,12.92
2022-09-18T07:31:07.891Z,13.01
2022-09-18T07:33:46.783Z,13.01
2022-09-18T07:36:27.696Z,13.08
2022-09-18T07:39:05.375Z,13.10
2022-09-18T07:41:57.151Z,13.08
2022-09-18T07:44:36.335Z,13.09
2022-09-18T07:47:13.466Z,13.15
2022-09-18T07:49:50.564Z,13.21
2022-09-18T07:52:27.462Z,13.24
2022-09-18T07:55:06.854Z,13.31
2022-09-18T07:57:47.068Z,13.32
2022-09-18T08:00:42.356Z,13.39
2022-09-18T08:03:20.289Z,13.45
2022-09-18T08:06:05.397Z,13.49
2022-09-18T08:08:46.838Z,13.52
2022-09-18T08:11:34.106Z,13.54
2022-09-18T08:14:33.083Z,13.56
2022-09-18T08:17:30.418Z,13.58
2022-09-18T08:20:25.596Z,13.62
2022-09-18T08:23:07.421Z,13.63
2022-09-18T08:25:47.901Z,13.68
2022-09-18T08:28:25.651Z,13.76
2022-09-18T08:31:11.093Z,13.85
2022-09-18T08:33:49.223Z,13.89
2022-09-18T08:36:26.470Z,13.95
2022-09-18T08:39:10.551Z,14.04
2022-09-18T08:42:26.202Z,14.16
2022-09-18T08:45:16.293Z,14.25
2022-09-18T08:48:04.116Z,14.29
2022-09-18T08:50:52.511Z,14.36
2022-09-18T08:53:38.125Z,14.45
2022-09-18T08:56:37.055Z,14.54
2022-09-18T08:59:35.456Z,14.64
2022-09-18T09:02:40.670Z,14.73
2022-09-18T09:05:25.256Z,14.79
2022-09-18T09:08:36.003Z,14.86
2022-09-18T09:11:21.269Z,14.88
2022-09-18T09:14:52.719Z,14.84
2022-09-18T09:17:43.151Z,14.90
2022-09-18T09:20:41.915Z,14.86
2022-09-18T09:23:29.482Z,14.95
2022-09-18T09:26:14.892Z,15.02
2022-09-18T09:29:15.013Z,15.06
2022-09-18T09:32:26.415Z,15.12
2022-09-18T09:35:31.337Z,15.18
2022-09-18T09:38:37.852Z,15.25
2022-09-18T09:41:26.639Z,15.24
2022-09-18T09:44:25.038Z,15.27
2022-09-18T09:47:17.954Z,15.40
2022-09-18T09:50:09.948Z,15.40
2022-09-18T09:52:51.019Z,15.41
2022-09-18T09:55:36.096Z,15.38
2022-09-18T09:58:29.158Z,15.48
2022-09-18T10:01:17.065Z,15.46
2022-09-18T10:04:20.533Z,15.51
2022-09-18T10:07:07.858Z,15.58
2022-09-18T10:09:57.671Z,15.67
2022-09-18T10:12:44.437Z,15.78
2022-09-18T10:15:26.099Z,15.91
2022-09-18T10:18:14.455Z,15.91
2022-09-18T10:21:00.815Z,15.93
2022-09-18T10:23:43.244Z,16.11
2022-09-18T10:26:31.726Z,16.13
2022-09-18T10:29:11.717Z,16.19
2022-09-18T10:32:01.900Z,16.18
2022-09-18T10:34:49.015Z,16.25
2022-09-18T10:37:43.782Z,16.24
2022-09-18T10:40:37.587Z,16.33
2022-09-18T10:43:23.824Z,16.53
2022-09-18T10:46:07.890Z,16.54
2022-09-18T10:48:58.656Z,16.66
2022-09-18T10:51:35.655Z,16.77
2022-09-18T10:54:23.394Z,16.90
2022-09-18T10:57:32.005Z,17.10
2022-09-18T11:00:52.019Z,17.26
2022-09-18T11:03:43.368Z,17.35
2022-09-18T11:06:30.027Z,17.57
2022-09-18T11:09:22.616Z,17.73
2022-09-18T11:11:59.739Z,17.77
2022-09-18T11:14:47.245Z,18.01
2022-09-18T11:17:36.776Z,18.28
2022-09-18T11:20:27.480Z,18.61
2022-09-18T11:23:29.951Z,18.87
2022-09-18T11:26:22.403Z,19.18
2022-09-18T11:29:06.768Z,19.33
2022-09-18T11:31:53.922Z,19.50
2022-09-18T11:34:40.675Z,19.58
2022-09-18T11:37:32.649Z,19.77
2022-09-18T11:40:21.254Z,19.80
2022-09-18T11:42:59.971Z,19.81
2022-09-18T11:45:56.363Z,19.78
2022-09-18T11:48:39.889Z,19.85
2022-09-18T11:51:27.259Z,20.00
2022-09-18T11:54:11.699Z,19.89
2022-09-18T11:56:52.210Z,19.98
2022-09-18T11:59:38.380Z,20.09
2022-09-18T12:02:24.901Z,20.23
2022-09-18T12:05:29.656Z,20.30
2022-09-18T12:08:38.823Z,20.52
2022-09-18T12:11:28.383Z,20.57
2022-09-18T12:14:20.656Z,20.73
2022-09-18T12:17:37.199Z,20.90
2022-09-18T12:20:24.146Z,21.10
2022-09-18T12:23:03.313Z,21.12
2022-09-18T12:25:50.749Z,21.16
2022-09-18T12:29:12.508Z,20.80
2022-09-18T12:32:15.077Z,20.98
2022-09-18T12:35:10.678Z,21.05
2022-09-18T12:38:04.158Z,20.95
2022-09-18T12:41:14.909Z,21.21
2022-09-18T12:44:22.808Z,21.02
2022-09-18T12:47:29.339Z,20.81
2022-09-18T12:50:25.245Z,20.57
2022-09-18T12:53:28.273Z,20.08
2022-09-18T12:56:30.996Z,19.75
2022-09-18T12:59:42.919Z,19.40
2022-09-18T13:02:50.451Z,19.14
2022-09-18T13:05:36.229Z,18.91
2022-09-18T13:08:21.025Z,18.61
2022-09-18T13:11:03.821Z,18.29
2022-09-18T13:13:53.221Z,18.08
2022-09-18T13:16:41.116Z,17.74
2022-09-18T13:19:24.548Z,17.60
2022-09-18T13:22:09.310Z,17.40
2022-09-18T13:24:49.901Z,17.19
2022-09-18T13:27:32.270Z,17.11
2022-09-18T13:30:29.720Z,16.90
2022-09-18T13:33:08.653Z,16.68
2022-09-18T13:35:57.722Z,16.50
2022-09-18T13:38:37.462Z,16.38
2022-09-18T13:41:16.712Z,16.29
2022-09-18T13:43:59.938Z,15.97
2022-09-18T13:46:45.303Z,15.93
2022-09-18T13:49:32.339Z,15.67
2022-09-18T13:52:46.378Z,15.55
2022-09-18T13:55:52.571Z,15.26
2022-09-18T13:58:56.320Z,15.08
2022-09-18T14:02:05.718Z,15.07
2022-09-18T14:05:32.059Z,15.00
2022-09-18T14:08:44.476Z,14.72
2022-09-18T14:11:32.517Z,14.65
2022-09-18T14:14:29.864Z,14.61
2022-09-18T14:17:19.436Z,14.47
2022-09-18T14:20:08.488Z,14.34
2022-09-18T14:22:46.715Z,14.31
2022-09-18T14:25:50.023Z,14.32
2022-09-18T14:28:27.428Z,14.34
2022-09-18T14:31:16.335Z,14.31
2022-09-18T14:33:56.714Z,14.35
2022-09-18T14:36:47.749Z,14.20
2022-09-18T14:39:30.135Z,14.25
2022-09-18T14:42:14.766Z,14.26
2022-09-18T14:44:54.657Z,14.29
2022-09-18T14:47:31.411Z,14.25
2022-09-18T14:50:37.814Z,14.30
2022-09-18T14:53:25.295Z,14.30
2022-09-18T14:56:08.348Z,14.16
2022-09-18T14:58:51.032Z,14.19
2022-09-18T15:01:33.316Z,14.12
2022-09-18T15:04:26.186Z,14.14
2022-09-18T15:07:06.129Z,14.05
2022-09-18T15:09:44.693Z,14.00
2022-09-18T15:12:28.782Z,13.93
2022-09-18T15:15:33.566Z,13.95
2022-09-18T15:18:23.986Z,13.94
2022-09-18T15:21:03.800Z,13.94
2022-09-18T15:23:45.083Z,13.93
2022-09-18T15:26:22.587Z,13.87
2022-09-18T15:29:02.945Z,13.84
2022-09-18T15:31:40.286Z,13.89
2022-09-18T15:34:22.956Z,13.81
2022-09-18T15:37:04.959Z,13.79
2022-09-18T15:39:47.502Z,13.78
2022-09-18T15:42:35.377Z,13.78
2022-09-18T15:45:23.869Z,13.76
2022-09-18T15:48:03.017Z,13.71
2022-09-18T15:50:45.301Z,13.63
2022-09-18T15:53:29.808Z,13.58
2022-09-18T15:56:23.262Z,13.55
2022-09-18T15:59:04.590Z,13.47
2022-09-18T16:01:51.066Z,13.50
2022-09-18T16:04:35.634Z,13.48
2022-09-18T16:07:23.790Z,13.44
2022-09-18T16:10:03.681Z,13.41
2022-09-18T16:12:51.603Z,13.27
